createdAt,value
2024-05-09T00:00:00.500Z,131.98
2024-05-09T00:01:00.514Z,132.02
2024-05-09T00:02:00.491Z,129.84
2024-05-09T00:03:00.485Z,133.00
2024-05-09T00:04:00.507Z,132.52
2024-05-09T00:05:00.550Z,131.73
2024-05-09T00:06:00.744Z,128.04
2024-05-09T00:07:00.465Z,131.06
2024-05-09T00:08:00.481Z,129.38
2024-05-09T00:09:00.469Z,131.21
2024-05-09T00:10:00.497Z,131.29
2024-05-09T00:11:01.252Z,130.78
2024-05-09T00:12:00.627Z,131.62
2024-05-09T00:13:00.469Z,130.31
2024-05-09T00:14:00.552Z,129.67
2024-05-09T00:15:00.480Z,132.45
2024-05-09T00:16:00.552Z,131.90
2024-05-09T00:17:00.517Z,130.99
2024-05-09T00:18:00.792Z,130.12
2024-05-09T00:19:00.597Z,130.27
2024-05-09T00:20:00.569Z,131.83
2024-05-09T00:21:00.762Z,129.46
2024-05-09T00:22:00.487Z,128.85
2024-05-09T00:23:00.513Z,128.24
2024-05-09T00:24:00.529Z,130.47
2024-05-09T00:25:00.496Z,132.82
2024-05-09T00:26:00.666Z,130.02
2024-05-09T00:27:00.523Z,128.81
2024-05-09T00:28:00.531Z,131.38
2024-05-09T00:29:00.519Z,129.54
2024-05-09T00:30:00.574Z,132.07
2024-05-09T00:31:00.496Z,131.98
2024-05-09T00:32:00.630Z,129.70
2024-05-09T00:33:00.836Z,130.19
2024-05-09T00:34:00.767Z,129.77
2024-05-09T00:35:00.584Z,131.61
2024-05-09T00:36:00.516Z,128.92
2024-05-09T00:37:00.614Z,130.53
2024-05-09T00:38:00.688Z,129.88
2024-05-09T00:39:00.517Z,130.08
2024-05-09T00:40:00.531Z,130.22
2024-05-09T00:41:00.584Z,129.97
2024-05-09T00:42:00.521Z,129.38
2024-05-09T00:43:00.561Z,128.37
2024-05-09T00:44:00.654Z,130.70
2024-05-09T00:45:00.672Z,130.33
2024-05-09T00:46:00.720Z,130.25
2024-05-09T00:47:00.840Z,128.76
2024-05-09T00:48:01.204Z,129.09
2024-05-09T00:49:00.947Z,128.19
2024-05-09T00:50:00.951Z,127.65
2024-05-09T00:51:01.015Z,129.82
2024-05-09T00:52:01.017Z,128.80
2024-05-09T00:53:01.066Z,130.11
2024-05-09T00:54:03.682Z,128.50
2024-05-09T00:55:01.076Z,129.95
2024-05-09T00:56:01.124Z,130.12
2024-05-09T00:57:01.078Z,129.62
2024-05-09T00:58:01.089Z,129.32
2024-05-09T00:59:01.114Z,128.80
2024-05-09T01:00:01.359Z,127.15
2024-05-09T01:01:01.108Z,128.63
2024-05-09T01:02:01.174Z,125.73
2024-05-09T01:03:01.285Z,130.62
2024-05-09T01:04:01.804Z,130.50
2024-05-09T01:05:01.187Z,129.93
2024-05-09T01:06:01.093Z,130.64
2024-05-09T01:07:01.240Z,128.42
2024-05-09T01:08:01.820Z,129.96
2024-05-09T01:09:01.058Z,128.25
2024-05-09T01:10:01.061Z,128.27
2024-05-09T01:11:01.177Z,130.85
2024-05-09T01:12:01.134Z,128.30
2024-05-09T01:13:01.064Z,128.31
2024-05-09T01:14:01.162Z,130.60
2024-05-09T01:15:01.184Z,131.08
2024-05-09T01:16:01.075Z,126.92
2024-05-09T01:17:01.076Z,131.30
2024-05-09T01:18:01.392Z,128.49
2024-05-09T01:19:01.141Z,128.39
2024-05-09T01:20:01.164Z,127.83
2024-05-09T01:21:01.192Z,127.70
2024-05-09T01:22:01.082Z,129.79
2024-05-09T01:23:01.260Z,128.51
2024-05-09T01:24:01.146Z,129.71
2024-05-09T01:25:01.090Z,127.89
2024-05-09T01:26:01.083Z,128.84
2024-05-09T01:27:01.078Z,131.10
2024-05-09T01:28:01.104Z,130.01
2024-05-09T01:29:01.148Z,125.17
2024-05-09T01:30:01.208Z,126.18
2024-05-09T01:31:01.094Z,128.45
2024-05-09T01:32:01.311Z,128.12
2024-05-09T01:33:01.553Z,130.00
2024-05-09T01:34:01.220Z,130.66
2024-05-09T01:35:01.327Z,129.03
2024-05-09T01:36:01.261Z,128.35
2024-05-09T01:37:01.337Z,128.62
2024-05-09T01:38:01.536Z,126.60
2024-05-09T01:39:01.462Z,130.65
2024-05-09T01:40:02.226Z,128.21
2024-05-09T01:41:01.588Z,128.84
2024-05-09T01:42:01.666Z,129.64
2024-05-09T01:43:01.689Z,129.49
2024-05-09T01:44:01.829Z,128.96
2024-05-09T01:45:01.780Z,129.73
2024-05-09T01:46:01.838Z,129.41
2024-05-09T01:47:01.901Z,130.61
2024-05-09T01:48:02.720Z,127.94
2024-05-09T01:49:02.076Z,129.29
2024-05-09T01:50:02.136Z,129.37
2024-05-09T01:51:02.168Z,129.44
2024-05-09T01:52:02.134Z,130.53
2024-05-09T01:53:02.207Z,131.71
2024-05-09T01:54:02.269Z,130.38
2024-05-09T01:55:05.764Z,127.09
2024-05-09T01:56:02.363Z,127.22
2024-05-09T01:57:02.345Z,127.48
2024-05-09T01:58:02.284Z,127.95
2024-05-09T01:59:02.331Z,128.78
2024-05-09T02:00:02.271Z,129.45
2024-05-09T02:01:02.501Z,129.42
2024-05-09T02:02:02.504Z,129.28
2024-05-09T02:03:02.503Z,131.16
2024-05-09T02:04:02.841Z,127.53
2024-05-09T02:05:02.430Z,130.76
2024-05-09T02:06:02.427Z,130.48
2024-05-09T02:07:02.278Z,130.61
2024-05-09T02:08:02.349Z,129.35
2024-05-09T02:09:02.291Z,130.21
2024-05-09T02:10:06.467Z,130.07
2024-05-09T02:11:03.492Z,130.15
2024-05-09T02:12:02.400Z,130.12
2024-05-09T02:13:02.295Z,131.21
2024-05-09T02:14:02.386Z,130.48
2024-05-09T02:15:02.315Z,132.66
2024-05-09T02:16:02.333Z,131.16
2024-05-09T02:17:02.432Z,129.24
2024-05-09T02:18:02.491Z,132.38
2024-05-09T02:19:02.455Z,130.11
2024-05-09T02:20:02.798Z,130.25
2024-05-09T02:21:02.500Z,130.14
2024-05-09T02:22:02.311Z,130.27
2024-05-09T02:23:09.808Z,50.00
2024-05-09T02:24:09.537Z,50.00
2024-05-09T02:25:09.519Z,50.00
2024-05-09T02:26:09.557Z,50.00
2024-05-09T02:27:09.521Z,50.00
2024-05-09T02:28:09.509Z,51.59
2024-05-09T02:29:09.608Z,51.90
2024-05-09T02:30:18.557Z,51.22
2024-05-09T02:31:10.605Z,51.36
2024-05-09T02:32:09.614Z,51.28
2024-05-09T02:33:11.375Z,52.61
2024-05-09T02:34:09.585Z,51.25
2024-05-09T02:35:09.617Z,51.22
2024-05-09T02:36:09.525Z,50.39
2024-05-09T02:37:09.545Z,50.73
2024-05-09T02:38:09.714Z,49.02
2024-05-09T02:39:09.533Z,53.05
2024-05-09T02:40:14.499Z,50.46
2024-05-09T02:41:10.582Z,50.67
2024-05-09T02:42:09.527Z,50.98
2024-05-09T02:43:10.923Z,51.29
2024-05-09T02:44:09.551Z,51.99
2024-05-09T02:45:09.535Z,54.00
2024-05-09T02:46:09.531Z,53.90
2024-05-09T02:47:09.623Z,50.80
2024-05-09T02:48:09.786Z,53.75
2024-05-09T02:49:09.635Z,53.58
2024-05-09T02:50:13.276Z,51.64
2024-05-09T02:51:10.585Z,51.83
2024-05-09T02:52:09.556Z,52.00
2024-05-09T02:53:10.164Z,51.42
2024-05-09T02:54:09.542Z,50.65
2024-05-09T02:55:09.535Z,54.56
2024-05-09T02:56:09.602Z,51.73
2024-05-09T02:57:09.540Z,51.37
2024-05-09T02:58:09.687Z,53.08
2024-05-09T02:59:09.574Z,53.94
2024-05-09T03:00:15.236Z,51.70
2024-05-09T03:01:10.668Z,51.79
2024-05-09T03:02:09.635Z,52.04
2024-05-09T03:03:11.363Z,52.87
2024-05-09T03:04:09.658Z,51.75
2024-05-09T03:05:09.614Z,52.20
2024-05-09T03:06:09.554Z,52.57
2024-05-09T03:07:09.559Z,52.06
2024-05-09T03:08:09.843Z,50.85
2024-05-09T03:09:09.555Z,54.21
2024-05-09T03:10:18.236Z,53.67
2024-05-09T03:11:10.666Z,53.73
2024-05-09T03:12:09.711Z,53.85
2024-05-09T03:13:09.559Z,53.85
2024-05-09T03:14:09.591Z,52.78
2024-05-09T03:15:09.563Z,55.05
2024-05-09T03:16:09.567Z,53.03
2024-05-09T03:17:09.678Z,53.13
2024-05-09T03:18:09.939Z,53.83
2024-05-09T03:19:09.771Z,54.57
2024-05-09T03:20:16.910Z,53.53
2024-05-09T03:21:10.745Z,53.60
2024-05-09T03:22:09.578Z,53.88
2024-05-09T03:23:10.376Z,53.45
2024-05-09T03:24:09.569Z,52.41
2024-05-09T03:25:09.577Z,53.87
2024-05-09T03:26:09.662Z,50.75
2024-05-09T03:27:09.672Z,51.67
2024-05-09T03:28:09.579Z,53.12
2024-05-09T03:29:09.599Z,54.95
2024-05-09T03:30:10.181Z,52.08
2024-05-09T03:31:09.590Z,54.16
2024-05-09T03:32:09.636Z,53.73
2024-05-09T03:33:09.830Z,52.57
2024-05-09T03:34:09.672Z,52.23
2024-05-09T03:35:09.608Z,51.60
2024-05-09T03:36:11.330Z,55.43
2024-05-09T03:37:09.595Z,51.85
2024-05-09T03:38:09.978Z,53.29
2024-05-09T03:39:09.658Z,53.79
2024-05-09T03:40:17.511Z,52.08
2024-05-09T03:41:10.775Z,52.19
2024-05-09T03:42:09.718Z,52.58
2024-05-09T03:43:09.752Z,53.10
2024-05-09T03:44:09.808Z,53.32
2024-05-09T03:45:09.709Z,54.28
2024-05-09T03:46:10.638Z,52.20
2024-05-09T03:47:10.151Z,52.18
2024-05-09T03:48:09.983Z,52.06
2024-05-09T03:49:09.789Z,52.83
2024-05-09T03:50:18.015Z,50.79
2024-05-09T03:51:10.879Z,50.96
2024-05-09T03:52:09.731Z,51.39
2024-05-09T03:53:09.771Z,51.86
2024-05-09T03:54:09.719Z,53.71
2024-05-09T03:55:09.741Z,53.43
2024-05-09T03:56:09.776Z,52.23
2024-05-09T03:57:09.741Z,53.95
2024-05-09T03:58:09.774Z,52.99
2024-05-09T03:59:09.743Z,52.48
2024-05-09T04:00:17.804Z,53.78
2024-05-09T04:01:10.800Z,53.84
2024-05-09T04:02:09.883Z,54.37
2024-05-09T04:03:11.890Z,54.96
2024-05-09T04:04:09.806Z,55.80
2024-05-09T04:05:09.773Z,52.67
2024-05-09T04:06:09.725Z,53.35
2024-05-09T04:07:09.728Z,55.19
2024-05-09T04:08:10.081Z,53.08
2024-05-09T04:09:10.632Z,54.98
2024-05-09T04:10:16.988Z,55.52
2024-05-09T04:11:10.851Z,55.55
2024-05-09T04:12:09.880Z,54.18
2024-05-09T04:13:09.744Z,54.80
2024-05-09T04:14:09.905Z,56.16
2024-05-09T04:15:12.822Z,55.53
2024-05-09T04:16:09.744Z,55.57
2024-05-09T04:17:09.759Z,53.85
2024-05-09T04:18:09.811Z,55.57
2024-05-09T04:19:09.901Z,53.86
2024-05-09T04:20:12.469Z,53.89
2024-05-09T04:21:10.803Z,55.58
2024-05-09T04:22:09.744Z,55.68
2024-05-09T04:23:09.840Z,53.81
2024-05-09T04:24:10.639Z,54.68
2024-05-09T04:25:09.737Z,54.77
2024-05-09T04:26:10.176Z,55.53
2024-05-09T04:27:09.748Z,52.61
2024-05-09T04:28:09.755Z,51.90
2024-05-09T04:29:09.756Z,54.59
2024-05-09T04:30:25.539Z,50.00
2024-05-09T04:31:29.046Z,50.00
2024-05-09T04:32:29.230Z,50.00
2024-05-09T04:33:29.274Z,50.00
2024-05-09T04:34:29.202Z,50.00
2024-05-09T04:35:29.125Z,50.00
2024-05-09T04:36:29.075Z,50.00
2024-05-09T04:37:29.079Z,51.40
2024-05-09T04:38:29.108Z,51.33
2024-05-09T04:39:29.085Z,52.25
2024-05-09T04:40:34.050Z,50.11
2024-05-09T04:41:30.199Z,50.19
2024-05-09T04:42:29.086Z,50.58
2024-05-09T04:43:29.094Z,50.76
2024-05-09T04:44:29.118Z,49.42
2024-05-09T04:45:29.087Z,50.85
2024-05-09T04:46:29.091Z,52.38
2024-05-09T04:47:29.315Z,50.66
2024-05-09T04:48:29.265Z,51.31
2024-05-09T04:49:29.209Z,51.54
2024-05-09T04:50:35.676Z,52.24
2024-05-09T04:51:30.111Z,52.33
2024-05-09T04:52:29.122Z,52.31
2024-05-09T04:53:29.120Z,51.81
2024-05-09T04:54:35.849Z,50.10
2024-05-09T04:55:30.101Z,52.30
2024-05-09T04:56:29.159Z,51.42
2024-05-09T04:57:29.103Z,52.23
2024-05-09T04:58:29.155Z,52.48
2024-05-09T04:59:29.124Z,50.41
2024-05-09T05:00:35.643Z,51.36
2024-05-09T05:01:30.261Z,51.53
2024-05-09T05:02:29.153Z,51.48
2024-05-09T05:03:29.374Z,51.87
2024-05-09T05:04:29.148Z,53.01
2024-05-09T05:05:29.149Z,53.35
2024-05-09T05:06:29.187Z,53.39
2024-05-09T05:07:29.118Z,51.16
2024-05-09T05:08:29.256Z,53.22
2024-05-09T05:09:29.126Z,52.88
2024-05-09T05:10:35.245Z,52.41
2024-05-09T05:11:30.196Z,52.43
2024-05-09T05:12:29.197Z,52.72
2024-05-09T05:13:29.147Z,53.03
2024-05-09T05:14:29.663Z,50.78
2024-05-09T05:15:29.129Z,52.55
2024-05-09T05:16:29.158Z,50.17
2024-05-09T05:17:29.218Z,51.39
2024-05-09T05:18:29.440Z,50.66
2024-05-09T05:19:29.297Z,51.99
2024-05-09T05:20:33.551Z,51.41
2024-05-09T05:21:30.275Z,51.53
2024-05-09T05:22:29.195Z,51.59
2024-05-09T05:23:29.212Z,51.71
2024-05-09T05:24:29.135Z,53.09
2024-05-09T05:25:29.123Z,50.93
2024-05-09T05:26:29.181Z,52.82
2024-05-09T05:27:29.127Z,52.28
2024-05-09T05:28:29.148Z,51.64
2024-05-09T05:29:29.151Z,51.16
2024-05-09T05:30:34.312Z,50.72
2024-05-09T05:31:30.211Z,50.88
2024-05-09T05:32:29.786Z,51.11
2024-05-09T05:33:29.264Z,51.46
2024-05-09T05:34:29.144Z,50.91
2024-05-09T05:35:29.225Z,49.91
2024-05-09T05:36:29.138Z,53.32
2024-05-09T05:37:29.139Z,56.50
2024-05-09T05:38:29.177Z,53.90
2024-05-09T05:39:29.204Z,52.77
2024-05-09T05:40:36.071Z,53.13
2024-05-09T05:41:30.236Z,53.21
2024-05-09T05:42:29.141Z,53.38
2024-05-09T05:43:29.138Z,53.58
2024-05-09T05:44:29.267Z,53.03
2024-05-09T05:45:29.147Z,54.64
2024-05-09T05:46:29.149Z,52.68
2024-05-09T05:47:29.243Z,51.65
2024-05-09T05:48:29.254Z,52.36
2024-05-09T05:49:29.182Z,51.80
2024-05-09T05:50:35.475Z,53.23
2024-05-09T05:51:30.148Z,53.34
2024-05-09T05:52:29.201Z,53.47
2024-05-09T05:53:29.201Z,53.41
2024-05-09T05:54:29.148Z,52.56
2024-05-09T05:55:29.218Z,54.98
2024-05-09T05:56:29.238Z,52.43
2024-05-09T05:57:29.140Z,55.57
2024-05-09T05:58:29.168Z,55.49
2024-05-09T05:59:29.251Z,52.92
2024-05-09T06:00:35.386Z,52.04
2024-05-09T06:01:30.213Z,52.23
2024-05-09T06:02:29.233Z,52.32
2024-05-09T06:03:29.204Z,52.26
2024-05-09T06:04:29.341Z,53.20
2024-05-09T06:05:29.246Z,53.57
2024-05-09T06:06:29.165Z,54.46
2024-05-09T06:07:29.150Z,51.27
2024-05-09T06:08:30.438Z,52.73
2024-05-09T06:09:29.161Z,51.64
2024-05-09T06:10:35.202Z,51.60
2024-05-09T06:11:30.333Z,51.76
2024-05-09T06:12:29.271Z,51.78
2024-05-09T06:13:29.187Z,52.48
2024-05-09T06:14:29.244Z,54.24
2024-05-09T06:15:29.172Z,53.06
2024-05-09T06:16:29.213Z,53.24
2024-05-09T06:17:29.384Z,54.99
2024-05-09T06:18:29.443Z,54.90
2024-05-09T06:19:29.312Z,53.73
2024-05-09T06:20:35.284Z,50.01
2024-05-09T06:21:30.223Z,50.17
2024-05-09T06:22:29.227Z,50.82
2024-05-09T06:23:29.236Z,50.64
2024-05-09T06:24:29.205Z,52.42
2024-05-09T06:25:29.182Z,54.03
2024-05-09T06:26:29.280Z,54.29
2024-05-09T06:27:29.200Z,51.55
2024-05-09T06:28:29.219Z,52.72
2024-05-09T06:29:29.284Z,52.55
2024-05-09T06:30:37.026Z,51.36
2024-05-09T06:31:30.187Z,51.52
2024-05-09T06:32:29.327Z,51.97
2024-05-09T06:33:29.592Z,52.28
2024-05-09T06:34:29.339Z,52.99
2024-05-09T06:35:29.338Z,54.06
2024-05-09T06:36:29.194Z,54.47
2024-05-09T06:37:29.191Z,52.54
2024-05-09T06:38:29.218Z,54.42
2024-05-09T06:39:29.230Z,53.01
2024-05-09T06:40:36.492Z,51.27
2024-05-09T06:41:30.271Z,51.34
2024-05-09T06:42:29.187Z,51.56
2024-05-09T06:43:29.189Z,52.18
2024-05-09T06:44:29.421Z,53.04
2024-05-09T06:45:29.199Z,54.82
2024-05-09T06:46:29.207Z,53.49
2024-05-09T06:47:29.270Z,53.41
2024-05-09T06:48:29.408Z,53.60
2024-05-09T06:49:29.352Z,53.94
2024-05-09T06:50:35.752Z,53.28
2024-05-09T06:51:30.222Z,53.34
2024-05-09T06:52:29.226Z,53.55
2024-05-09T06:53:29.290Z,54.33
2024-05-09T06:54:29.210Z,54.64
2024-05-09T06:55:29.226Z,54.30
2024-05-09T06:56:29.304Z,53.72
2024-05-09T06:57:29.215Z,52.33
2024-05-09T06:58:29.221Z,51.41
2024-05-09T07:00:35.828Z,52.45
2024-05-09T07:01:31.200Z,52.55
2024-05-09T07:02:30.283Z,53.06
2024-05-09T07:03:29.776Z,53.08
2024-05-09T07:04:29.308Z,54.30
2024-05-09T07:05:29.290Z,54.21
2024-05-09T07:06:29.217Z,53.48
2024-05-09T07:07:29.226Z,52.50
2024-05-09T07:08:29.313Z,53.72
2024-05-09T07:09:29.224Z,55.62
2024-05-09T07:10:34.500Z,53.79
2024-05-09T07:11:30.389Z,53.84
2024-05-09T07:12:29.330Z,54.26
2024-05-09T07:13:29.251Z,54.56
2024-05-09T07:14:29.343Z,54.01
2024-05-09T07:15:29.255Z,53.21
2024-05-09T07:16:29.236Z,53.60
2024-05-09T07:17:29.462Z,53.46
2024-05-09T07:18:29.381Z,50.50
2024-05-09T07:19:29.387Z,52.57
2024-05-09T07:20:34.480Z,52.58
2024-05-09T07:21:31.183Z,52.68
2024-05-09T07:22:29.639Z,52.85
2024-05-09T07:23:29.288Z,52.93
2024-05-09T07:24:29.251Z,54.30
2024-05-09T07:25:29.463Z,52.87
2024-05-09T07:26:29.286Z,51.00
2024-05-09T07:27:29.315Z,51.19
2024-05-09T07:28:29.288Z,51.63
2024-05-09T07:29:29.309Z,52.80
2024-05-09T07:30:33.376Z,52.89
2024-05-09T07:31:30.285Z,52.94
2024-05-09T07:32:29.413Z,53.14
2024-05-09T07:33:29.469Z,53.47
2024-05-09T07:34:29.383Z,53.08
2024-05-09T07:35:29.474Z,53.15
2024-05-09T07:36:29.266Z,51.22
2024-05-09T07:37:29.273Z,53.36
2024-05-09T07:38:29.376Z,51.68
2024-05-09T07:39:29.282Z,55.11
2024-05-09T07:40:35.627Z,51.10
2024-05-09T07:41:30.347Z,51.14
2024-05-09T07:42:29.270Z,51.80
2024-05-09T07:43:29.271Z,51.36
2024-05-09T07:44:29.343Z,52.73
2024-05-09T07:45:45.649Z,53.36
2024-05-09T07:47:36.980Z,51.27
2024-05-09T07:48:57.218Z,51.31
2024-05-09T07:50:01.212Z,51.51
2024-05-09T07:53:08.515Z,51.66
2024-05-09T07:53:32.618Z,51.64
2024-05-09T07:53:40.381Z,51.67
2024-05-09T07:54:30.502Z,51.76
2024-05-09T07:55:29.561Z,53.74
2024-05-09T07:56:29.675Z,56.85
2024-05-09T07:57:29.339Z,58.86
2024-05-09T07:58:29.316Z,61.87
2024-05-09T07:59:29.327Z,61.37
2024-05-09T08:00:31.719Z,59.05
2024-05-09T08:01:29.453Z,59.16
2024-05-09T08:02:29.431Z,58.82
2024-05-09T08:03:29.443Z,57.11
2024-05-09T08:04:29.483Z,57.58
2024-05-09T08:05:29.458Z,57.22
2024-05-09T08:06:29.350Z,56.09
2024-05-09T08:07:29.316Z,52.79
2024-05-09T08:08:29.333Z,54.38
2024-05-09T08:09:29.374Z,53.53
2024-05-09T08:10:29.540Z,54.59
2024-05-09T08:11:29.334Z,53.95
2024-05-09T08:12:29.379Z,53.33
2024-05-09T08:13:29.332Z,54.34
2024-05-09T08:14:29.317Z,51.06
2024-05-09T08:15:29.519Z,54.10
2024-05-09T08:16:29.510Z,50.95
2024-05-09T08:17:29.407Z,52.62
2024-05-09T08:18:29.598Z,53.47
2024-05-09T08:19:29.379Z,54.73
2024-05-09T08:20:33.656Z,53.70
2024-05-09T08:21:30.442Z,53.79
2024-05-09T08:22:29.342Z,54.30
2024-05-09T08:23:29.344Z,53.90
2024-05-09T08:24:29.372Z,55.32
2024-05-09T08:25:29.331Z,52.68
2024-05-09T08:26:29.345Z,54.89
2024-05-09T08:27:29.383Z,54.62
2024-05-09T08:28:29.423Z,53.02
2024-05-09T08:29:29.341Z,53.37
2024-05-09T08:30:33.872Z,54.07
2024-05-09T08:31:30.482Z,54.13
2024-05-09T08:32:29.385Z,54.44
2024-05-09T08:33:29.727Z,54.20
2024-05-09T08:34:29.583Z,54.19
2024-05-09T08:35:29.409Z,54.79
2024-05-09T08:36:29.399Z,53.11
2024-05-09T08:37:32.883Z,54.55
2024-05-09T08:38:30.355Z,54.65
2024-05-09T08:39:29.400Z,54.81
2024-05-09T08:40:34.576Z,52.93
2024-05-09T08:41:30.363Z,54.71
2024-05-09T08:42:29.462Z,54.69
2024-05-09T08:43:29.517Z,55.18
2024-05-09T08:44:29.381Z,56.28
2024-05-09T08:45:29.408Z,54.77
2024-05-09T08:46:29.544Z,54.55
2024-05-09T08:47:29.505Z,52.36
2024-05-09T08:48:29.778Z,54.67
2024-05-09T08:49:29.449Z,52.43
2024-05-09T08:50:37.691Z,51.51
2024-05-09T08:51:30.458Z,51.74
2024-05-09T08:52:29.384Z,52.50
2024-05-09T08:53:29.386Z,53.45
2024-05-09T08:54:29.405Z,54.34
2024-05-09T08:55:30.668Z,55.59
2024-05-09T08:56:29.393Z,55.70
2024-05-09T08:57:29.447Z,57.06
2024-05-09T08:58:29.395Z,56.77
2024-05-09T08:59:29.398Z,56.57
2024-05-09T09:00:36.203Z,54.53
2024-05-09T09:01:30.471Z,54.65
2024-05-09T09:02:29.526Z,54.87
2024-05-09T09:03:29.634Z,55.01
2024-05-09T09:04:29.483Z,55.75
2024-05-09T09:05:29.524Z,57.05
2024-05-09T09:06:29.444Z,56.17
2024-05-09T09:07:29.473Z,56.87
2024-05-09T09:08:29.396Z,54.17
2024-05-09T09:09:29.421Z,55.11
2024-05-09T09:10:32.232Z,55.84
2024-05-09T09:11:29.425Z,55.66
2024-05-09T09:12:29.438Z,54.46
2024-05-09T09:13:29.729Z,53.97
2024-05-09T09:14:29.406Z,53.67
2024-05-09T09:15:29.459Z,54.67
2024-05-09T09:16:29.494Z,54.76
2024-05-09T09:17:29.610Z,51.34
2024-05-09T09:18:29.667Z,53.67
2024-05-09T09:19:29.484Z,54.76
2024-05-09T09:20:35.926Z,53.36
2024-05-09T09:21:30.458Z,53.47
2024-05-09T09:22:29.402Z,54.05
2024-05-09T09:23:29.413Z,53.53
2024-05-09T09:24:29.432Z,54.77
2024-05-09T09:25:29.403Z,56.59
2024-05-09T09:26:29.407Z,54.52
2024-05-09T09:27:29.489Z,55.16
2024-05-09T09:28:29.438Z,55.27
2024-05-09T09:29:29.473Z,54.32
2024-05-09T09:30:36.470Z,53.14
2024-05-09T09:31:30.642Z,53.26
2024-05-09T09:32:29.625Z,53.38
2024-05-09T09:33:29.754Z,53.50
2024-05-09T09:34:29.591Z,52.63
2024-05-09T09:35:29.524Z,56.03
2024-05-09T09:36:29.557Z,52.37
2024-05-09T09:37:29.526Z,52.66
2024-05-09T09:38:29.566Z,50.55
2024-05-09T09:39:29.687Z,54.75
2024-05-09T09:40:32.885Z,54.10
2024-05-09T09:41:30.688Z,54.25
2024-05-09T09:42:29.759Z,54.54
2024-05-09T09:43:29.670Z,52.82
2024-05-09T09:44:29.674Z,55.56
2024-05-09T09:45:29.708Z,55.41
2024-05-09T09:46:29.695Z,51.05
2024-05-09T09:47:29.827Z,57.12
2024-05-09T09:48:29.937Z,52.92
2024-05-09T09:49:29.785Z,51.06
2024-05-09T09:50:34.417Z,56.24
2024-05-09T09:51:30.829Z,56.31
2024-05-09T09:52:29.845Z,56.35
2024-05-09T09:53:29.815Z,53.80
2024-05-09T09:54:29.868Z,51.34
2024-05-09T09:55:29.824Z,53.76
2024-05-09T09:56:29.810Z,55.42
2024-05-09T09:57:29.835Z,52.58
2024-05-09T09:58:29.931Z,52.82
2024-05-09T09:59:29.924Z,55.48
2024-05-09T10:00:33.133Z,53.74
2024-05-09T10:01:30.057Z,53.79
2024-05-09T10:02:30.079Z,54.07
2024-05-09T10:03:30.238Z,54.47
2024-05-09T10:04:30.053Z,52.50
2024-05-09T10:05:30.507Z,53.51
2024-05-09T10:06:30.057Z,53.49
2024-05-09T10:07:30.022Z,51.82
2024-05-09T10:08:30.072Z,53.50
2024-05-09T10:09:30.052Z,54.23
2024-05-09T10:10:32.694Z,50.35
2024-05-09T10:11:30.213Z,50.48
2024-05-09T10:12:30.085Z,51.10
2024-05-09T10:13:30.040Z,52.50
2024-05-09T10:14:30.007Z,52.95
2024-05-09T10:15:30.139Z,54.85
2024-05-09T10:16:30.107Z,54.75
2024-05-09T10:17:30.059Z,50.41
2024-05-09T10:18:31.981Z,57.17
2024-05-09T10:19:30.132Z,52.76
2024-05-09T10:20:32.670Z,54.83
2024-05-09T10:21:30.091Z,54.91
2024-05-09T10:22:30.008Z,54.86
2024-05-09T10:23:30.041Z,55.50
2024-05-09T10:24:30.171Z,52.69
2024-05-09T10:25:30.089Z,55.43
2024-05-09T10:26:30.103Z,55.80
2024-05-09T10:27:30.053Z,52.52
2024-05-09T10:28:30.046Z,54.15
2024-05-09T10:29:30.023Z,54.30
2024-05-09T10:30:35.742Z,52.94
2024-05-09T10:31:31.075Z,53.06
2024-05-09T10:32:30.101Z,53.44
2024-05-09T10:33:30.146Z,54.28
2024-05-09T10:34:30.172Z,52.72
2024-05-09T10:35:30.063Z,53.23
2024-05-09T10:36:30.054Z,52.59
2024-05-09T10:37:30.065Z,52.31
2024-05-09T10:38:30.125Z,52.34
2024-05-09T10:39:30.137Z,54.05
2024-05-09T10:40:31.818Z,54.51
2024-05-09T10:41:30.197Z,51.41
2024-05-09T10:42:30.319Z,53.51
2024-05-09T10:43:30.359Z,54.25
2024-05-09T10:44:30.381Z,52.23
2024-05-09T10:45:30.475Z,54.92
2024-05-09T10:46:30.515Z,50.00
2024-05-09T10:47:30.666Z,55.31
2024-05-09T10:48:30.669Z,56.37
2024-05-09T10:49:30.674Z,53.27
2024-05-09T10:50:34.186Z,55.28
2024-05-09T10:51:30.760Z,52.18
2024-05-09T10:52:30.711Z,53.85
2024-05-09T10:53:30.696Z,55.81
2024-05-09T10:54:30.765Z,56.44
2024-05-09T10:55:30.798Z,55.45
2024-05-09T10:56:30.703Z,53.53
2024-05-09T10:57:30.721Z,53.44
2024-05-09T10:58:30.774Z,53.82
2024-05-09T10:59:30.718Z,51.38
2024-05-09T11:00:35.681Z,52.08
2024-05-09T11:01:31.903Z,52.19
2024-05-09T11:02:30.850Z,52.54
2024-05-09T11:03:30.890Z,53.48
2024-05-09T11:04:30.793Z,53.38
2024-05-09T11:05:30.802Z,53.91
2024-05-09T11:06:30.737Z,54.27
2024-05-09T11:07:30.785Z,53.73
2024-05-09T11:08:30.722Z,53.35
2024-05-09T11:09:30.811Z,55.50
2024-05-09T11:10:34.054Z,52.26
2024-05-09T11:11:30.793Z,52.27
2024-05-09T11:12:30.770Z,52.36
2024-05-09T11:13:31.032Z,52.33
2024-05-09T11:14:30.753Z,51.62
2024-05-09T11:15:30.901Z,54.24
2024-05-09T11:16:30.792Z,52.58
2024-05-09T11:17:30.855Z,55.02
2024-05-09T11:18:34.667Z,55.62
2024-05-09T11:19:31.821Z,55.71
2024-05-09T11:20:34.798Z,56.01
2024-05-09T11:21:30.785Z,55.73
2024-05-09T11:22:30.766Z,55.79
2024-05-09T11:23:31.040Z,53.85
2024-05-09T11:24:30.812Z,53.59
2024-05-09T11:25:30.832Z,52.54
2024-05-09T11:26:30.760Z,52.74
2024-05-09T11:27:30.793Z,55.53
2024-05-09T11:28:30.772Z,54.12
2024-05-09T11:29:30.769Z,53.82
2024-05-09T11:30:32.337Z,50.00
2024-05-09T11:31:30.860Z,57.60
2024-05-09T11:32:30.936Z,55.46
2024-05-09T11:33:30.874Z,53.85
2024-05-09T11:34:30.831Z,54.94
2024-05-09T11:35:30.767Z,51.30
2024-05-09T11:36:30.823Z,56.82
2024-05-09T11:37:32.671Z,51.57
2024-05-09T11:38:30.805Z,53.20
2024-05-09T11:39:30.859Z,52.78
2024-05-09T11:40:34.260Z,51.49
2024-05-09T11:41:30.810Z,51.79
2024-05-09T11:42:30.877Z,52.51
2024-05-09T11:43:30.966Z,52.71
2024-05-09T11:44:30.828Z,53.36
2024-05-09T11:45:31.778Z,57.42
2024-05-09T11:46:30.877Z,54.86
2024-05-09T11:47:31.847Z,54.67
2024-05-09T11:48:31.139Z,54.93
2024-05-09T11:49:30.957Z,53.46
2024-05-09T11:50:35.313Z,54.53
2024-05-09T11:51:31.894Z,54.60
2024-05-09T11:52:30.828Z,54.75
2024-05-09T11:53:30.829Z,55.83
2024-05-09T11:54:30.869Z,55.70
2024-05-09T11:55:31.012Z,55.87
2024-05-09T11:56:30.840Z,53.28
2024-05-09T11:57:30.996Z,60.23
2024-05-09T11:58:30.835Z,54.27
2024-05-09T11:59:30.837Z,54.89
2024-05-09T12:00:36.625Z,54.05
2024-05-09T12:01:32.156Z,54.19
2024-05-09T12:02:30.926Z,54.53
2024-05-09T12:03:31.080Z,54.33
2024-05-09T12:04:31.115Z,55.83
2024-05-09T12:05:30.957Z,56.62
2024-05-09T12:06:30.906Z,57.69
2024-05-09T12:07:30.897Z,53.80
2024-05-09T12:08:30.847Z,54.51
2024-05-09T12:09:30.916Z,53.47
2024-05-09T12:10:33.960Z,54.68
2024-05-09T12:11:32.098Z,54.83
2024-05-09T12:12:30.953Z,55.10
2024-05-09T12:13:30.915Z,55.41
2024-05-09T12:14:30.868Z,54.43
2024-05-09T12:15:30.955Z,56.80
2024-05-09T12:16:30.966Z,53.60
2024-05-09T12:17:31.009Z,56.09
2024-05-09T12:18:30.930Z,56.90
2024-05-09T12:19:30.935Z,51.80
2024-05-09T12:20:36.254Z,56.89
2024-05-09T12:21:31.896Z,56.90
2024-05-09T12:22:30.897Z,57.24
2024-05-09T12:23:30.876Z,56.48
2024-05-09T12:24:30.914Z,54.90
2024-05-09T12:25:30.887Z,57.11
2024-05-09T12:26:30.955Z,53.79
2024-05-09T12:27:30.935Z,55.97
2024-05-09T12:28:30.906Z,57.96
2024-05-09T12:29:30.901Z,54.21
2024-05-09T12:30:36.449Z,55.81
2024-05-09T12:31:31.928Z,54.95
2024-05-09T12:32:30.989Z,54.07
2024-05-09T12:33:30.980Z,56.13
2024-05-09T12:34:30.937Z,56.87
2024-05-09T12:35:30.894Z,54.53
2024-05-09T12:36:30.959Z,55.38
2024-05-09T12:37:30.911Z,55.95
2024-05-09T12:38:30.990Z,55.66
2024-05-09T12:39:30.944Z,58.43
2024-05-09T12:40:35.945Z,53.44
2024-05-09T12:41:31.911Z,53.52
2024-05-09T12:42:33.270Z,54.06
2024-05-09T12:43:31.098Z,55.04
2024-05-09T12:44:30.914Z,56.77
2024-05-09T12:45:31.023Z,54.18
2024-05-09T12:46:30.970Z,54.57
2024-05-09T12:47:31.008Z,55.56
2024-05-09T12:48:31.059Z,53.65
2024-05-09T12:49:31.030Z,54.03
2024-05-09T12:50:33.166Z,56.16
2024-05-09T12:51:31.008Z,56.20